sensor_id;sensor_type;location;lat;lon;timestamp;P1;durP1;ratioP1;P2;durP2;ratioP2
65477;SDS011;53678;39.642;22.430;2023-11-18T00:01:21;17.83;;;10.50;;
65477;SDS011;53678;39.642;22.430;2023-11-18T00:03:47;20.63;;;11.13;;
65477;SDS011;53678;39.642;22.430;2023-11-18T00:06:12;25.48;;;12.50;;
65477;SDS011;53678;39.642;22.430;2023-11-18T00:08:38;24.42;;;12.77;;
65477;SDS011;53678;39.642;22.430;2023-11-18T00:11:04;24.25;;;11.85;;
65477;SDS011;53678;39.642;22.430;2023-11-18T00:13:30;19.73;;;11.57;;
65477;SDS011;53678;39.642;22.430;2023-11-18T00:15:56;18.23;;;11.30;;
65477;SDS011;53678;39.642;22.430;2023-11-18T00:18:23;22.33;;;11.82;;
65477;SDS011;53678;39.642;22.430;2023-11-18T00:20:49;21.80;;;13.13;;
65477;SDS011;53678;39.642;22.430;2023-11-18T00:23:16;20.83;;;12.02;;
65477;SDS011;53678;39.642;22.430;2023-11-18T00:25:42;25.13;;;12.25;;
65477;SDS011;53678;39.642;22.430;2023-11-18T00:28:10;20.35;;;12.20;;
65477;SDS011;53678;39.642;22.430;2023-11-18T00:30:39;20.75;;;12.85;;
65477;SDS011;53678;39.642;22.430;2023-11-18T00:33:05;22.40;;;11.82;;
65477;SDS011;53678;39.642;22.430;2023-11-18T00:35:31;17.70;;;10.68;;
65477;SDS011;53678;39.642;22.430;2023-11-18T00:37:59;19.10;;;11.50;;
65477;SDS011;53678;39.642;22.430;2023-11-18T00:40:25;24.75;;;15.00;;
65477;SDS011;53678;39.642;22.430;2023-11-18T00:42:55;20.70;;;11.80;;
65477;SDS011;53678;39.642;22.430;2023-11-18T00:45:21;20.42;;;12.55;;
65477;SDS011;53678;39.642;22.430;2023-11-18T00:47:47;20.08;;;12.23;;
65477;SDS011;53678;39.642;22.430;2023-11-18T00:50:13;20.42;;;12.88;;
65477;SDS011;53678;39.642;22.430;2023-11-18T00:52:39;20.33;;;11.77;;
65477;SDS011;53678;39.642;22.430;2023-11-18T00:55:09;17.35;;;11.10;;
65477;SDS011;53678;39.642;22.430;2023-11-18T00:57:38;18.77;;;11.68;;
65477;SDS011;53678;39.642;22.430;2023-11-18T01:00:07;15.55;;;9.00;;
65477;SDS011;53678;39.642;22.430;2023-11-18T01:02:35;14.18;;;8.77;;
65477;SDS011;53678;39.642;22.430;2023-11-18T01:05:00;19.08;;;9.02;;
65477;SDS011;53678;39.642;22.430;2023-11-18T01:07:26;16.95;;;9.48;;
65477;SDS011;53678;39.642;22.430;2023-11-18T01:09:52;13.45;;;8.32;;
65477;SDS011;53678;39.642;22.430;2023-11-18T01:12:18;14.68;;;8.60;;
65477;SDS011;53678;39.642;22.430;2023-11-18T01:14:43;16.95;;;9.63;;
65477;SDS011;53678;39.642;22.430;2023-11-18T01:17:09;12.85;;;8.95;;
65477;SDS011;53678;39.642;22.430;2023-11-18T01:19:35;13.80;;;7.82;;
65477;SDS011;53678;39.642;22.430;2023-11-18T01:22:01;8.38;;;4.60;;
65477;SDS011;53678;39.642;22.430;2023-11-18T01:24:34;9.38;;;3.90;;
65477;SDS011;53678;39.642;22.430;2023-11-18T01:27:00;4.05;;;2.15;;
65477;SDS011;53678;39.642;22.430;2023-11-18T01:29:26;5.53;;;2.08;;
65477;SDS011;53678;39.642;22.430;2023-11-18T01:31:53;5.30;;;2.15;;
65477;SDS011;53678;39.642;22.430;2023-11-18T01:34:21;4.55;;;2.47;;
65477;SDS011;53678;39.642;22.430;2023-11-18T01:36:50;4.63;;;2.22;;
65477;SDS011;53678;39.642;22.430;2023-11-18T01:39:16;4.47;;;1.77;;
65477;SDS011;53678;39.642;22.430;2023-11-18T01:41:46;4.47;;;2.25;;
65477;SDS011;53678;39.642;22.430;2023-11-18T01:44:12;2.92;;;1.90;;
65477;SDS011;53678;39.642;22.430;2023-11-18T01:46:41;4.60;;;2.47;;
65477;SDS011;53678;39.642;22.430;2023-11-18T01:49:10;8.63;;;2.50;;
65477;SDS011;53678;39.642;22.430;2023-11-18T01:51:42;4.95;;;2.50;;
65477;SDS011;53678;39.642;22.430;2023-11-18T01:54:10;16.55;;;9.85;;
65477;SDS011;53678;39.642;22.430;2023-11-18T01:56:46;6.05;;;3.45;;
65477;SDS011;53678;39.642;22.430;2023-11-18T01:59:15;7.00;;;3.28;;
65477;SDS011;53678;39.642;22.430;2023-11-18T02:01:48;6.22;;;2.30;;
65477;SDS011;53678;39.642;22.430;2023-11-18T02:04:16;5.30;;;2.45;;
65477;SDS011;53678;39.642;22.430;2023-11-18T02:06:45;2.65;;;1.23;;
65477;SDS011;53678;39.642;22.430;2023-11-18T02:09:12;1.67;;;1.05;;
65477;SDS011;53678;39.642;22.430;2023-11-18T02:11:44;2.08;;;1.10;;
65477;SDS011;53678;39.642;22.430;2023-11-18T02:14:17;4.20;;;1.20;;
65477;SDS011;53678;39.642;22.430;2023-11-18T02:16:45;1.35;;;0.65;;
65477;SDS011;53678;39.642;22.430;2023-11-18T02:19:23;3.13;;;0.90;;
65477;SDS011;53678;39.642;22.430;2023-11-18T02:21:50;1.10;;;0.75;;
65477;SDS011;53678;39.642;22.430;2023-11-18T02:24:26;1.98;;;0.57;;
65477;SDS011;53678;39.642;22.430;2023-11-18T02:26:53;1.10;;;0.47;;
65477;SDS011;53678;39.642;22.430;2023-11-18T02:29:21;1.02;;;0.22;;
65477;SDS011;53678;39.642;22.430;2023-11-18T02:31:47;1.63;;;0.30;;
65477;SDS011;53678;39.642;22.430;2023-11-18T02:34:19;6.25;;;0.63;;
65477;SDS011;53678;39.642;22.430;2023-11-18T02:36:51;0.90;;;0.80;;
65477;SDS011;53678;39.642;22.430;2023-11-18T02:39:23;3.33;;;0.80;;
65477;SDS011;53678;39.642;22.430;2023-11-18T02:41:58;0.95;;;0.60;;
65477;SDS011;53678;39.642;22.430;2023-11-18T02:44:28;1.10;;;0.60;;
65477;SDS011;53678;39.642;22.430;2023-11-18T02:46:57;1.08;;;0.70;;
65477;SDS011;53678;39.642;22.430;2023-11-18T02:49:24;0.63;;;0.50;;
65477;SDS011;53678;39.642;22.430;2023-11-18T02:51:49;2.58;;;0.70;;
65477;SDS011;53678;39.642;22.430;2023-11-18T02:54:15;0.90;;;0.57;;
65477;SDS011;53678;39.642;22.430;2023-11-18T02:56:41;0.43;;;0.40;;
65477;SDS011;53678;39.642;22.430;2023-11-18T02:59:07;1.00;;;0.55;;
65477;SDS011;53678;39.642;22.430;2023-11-18T03:01:33;1.90;;;1.00;;
65477;SDS011;53678;39.642;22.430;2023-11-18T03:04:02;1.15;;;0.60;;
65477;SDS011;53678;39.642;22.430;2023-11-18T03:06:27;1.80;;;1.00;;
65477;SDS011;53678;39.642;22.430;2023-11-18T03:08:53;1.98;;;0.80;;
65477;SDS011;53678;39.642;22.430;2023-11-18T03:11:19;1.40;;;0.63;;
65477;SDS011;53678;39.642;22.430;2023-11-18T03:13:45;0.60;;;0.43;;
65477;SDS011;53678;39.642;22.430;2023-11-18T03:16:11;0.60;;;0.40;;
65477;SDS011;53678;39.642;22.430;2023-11-18T03:18:38;2.28;;;0.70;;
65477;SDS011;53678;39.642;22.430;2023-11-18T03:21:11;0.75;;;0.57;;
65477;SDS011;53678;39.642;22.430;2023-11-18T03:23:38;1.13;;;0.50;;
65477;SDS011;53678;39.642;22.430;2023-11-18T03:26:06;2.50;;;1.08;;
65477;SDS011;53678;39.642;22.430;2023-11-18T03:28:33;1.90;;;0.93;;
65477;SDS011;53678;39.642;22.430;2023-11-18T03:30:59;0.52;;;0.50;;
65477;SDS011;53678;39.642;22.430;2023-11-18T03:33:26;1.05;;;0.40;;
65477;SDS011;53678;39.642;22.430;2023-11-18T03:35:52;3.28;;;0.65;;
65477;SDS011;53678;39.642;22.430;2023-11-18T03:38:18;2.45;;;0.50;;
65477;SDS011;53678;39.642;22.430;2023-11-18T03:40:43;0.85;;;0.35;;
65477;SDS011;53678;39.642;22.430;2023-11-18T03:43:10;0.30;;;0.30;;
65477;SDS011;53678;39.642;22.430;2023-11-18T03:45:41;0.55;;;0.30;;
65477;SDS011;53678;39.642;22.430;2023-11-18T03:48:07;0.13;;;0.13;;
65477;SDS011;53678;39.642;22.430;2023-11-18T03:50:33;0.55;;;0.25;;
65477;SDS011;53678;39.642;22.430;2023-11-18T03:53:00;0.30;;;0.25;;
65477;SDS011;53678;39.642;22.430;2023-11-18T03:55:28;1.05;;;0.57;;
65477;SDS011;53678;39.642;22.430;2023-11-18T03:57:54;2.58;;;0.50;;
65477;SDS011;53678;39.642;22.430;2023-11-18T04:00:22;1.10;;;0.50;;
65477;SDS011;53678;39.642;22.430;2023-11-18T04:02:47;0.93;;;0.77;;
65477;SDS011;53678;39.642;22.430;2023-11-18T04:05:13;0.95;;;0.60;;
65477;SDS011;53678;39.642;22.430;2023-11-18T04:07:39;1.60;;;0.70;;
65477;SDS011;53678;39.642;22.430;2023-11-18T04:10:07;0.85;;;0.52;;
65477;SDS011;53678;39.642;22.430;2023-11-18T04:12:39;2.25;;;0.82;;
65477;SDS011;53678;39.642;22.430;2023-11-18T04:15:05;1.42;;;0.55;;
65477;SDS011;53678;39.642;22.430;2023-11-18T04:17:31;1.05;;;0.63;;
65477;SDS011;53678;39.642;22.430;2023-11-18T04:19:57;0.80;;;0.50;;
65477;SDS011;53678;39.642;22.430;2023-11-18T04:22:23;1.45;;;0.75;;
65477;SDS011;53678;39.642;22.430;2023-11-18T04:24:49;1.40;;;1.00;;
65477;SDS011;53678;39.642;22.430;2023-11-18T04:27:16;0.60;;;0.60;;
65477;SDS011;53678;39.642;22.430;2023-11-18T04:29:42;2.38;;;1.20;;
65477;SDS011;53678;39.642;22.430;2023-11-18T04:32:08;2.63;;;1.00;;
65477;SDS011;53678;39.642;22.430;2023-11-18T04:34:36;4.32;;;0.93;;
65477;SDS011;53678;39.642;22.430;2023-11-18T04:37:05;1.17;;;0.70;;
65477;SDS011;53678;39.642;22.430;2023-11-18T04:39:32;1.58;;;0.90;;
65477;SDS011;53678;39.642;22.430;2023-11-18T04:41:58;1.45;;;0.68;;
65477;SDS011;53678;39.642;22.430;2023-11-18T04:44:23;1.10;;;0.80;;
65477;SDS011;53678;39.642;22.430;2023-11-18T04:46:49;1.17;;;0.70;;
65477;SDS011;53678;39.642;22.430;2023-11-18T04:49:17;1.60;;;0.80;;
65477;SDS011;53678;39.642;22.430;2023-11-18T04:51:43;2.03;;;1.23;;
65477;SDS011;53678;39.642;22.430;2023-11-18T04:54:09;0.88;;;0.50;;
65477;SDS011;53678;39.642;22.430;2023-11-18T04:56:36;1.75;;;0.52;;
65477;SDS011;53678;39.642;22.430;2023-11-18T04:59:04;1.60;;;0.70;;
65477;SDS011;53678;39.642;22.430;2023-11-18T05:01:31;1.38;;;0.70;;
65477;SDS011;53678;39.642;22.430;2023-11-18T05:03:57;1.75;;;1.10;;
65477;SDS011;53678;39.642;22.430;2023-11-18T05:06:23;0.90;;;0.70;;
65477;SDS011;53678;39.642;22.430;2023-11-18T05:08:48;3.30;;;0.70;;
65477;SDS011;53678;39.642;22.430;2023-11-18T05:11:15;3.83;;;0.90;;
65477;SDS011;53678;39.642;22.430;2023-11-18T05:13:41;2.83;;;0.60;;
65477;SDS011;53678;39.642;22.430;2023-11-18T05:16:07;2.17;;;0.40;;
65477;SDS011;53678;39.642;22.430;2023-11-18T05:18:33;0.73;;;0.40;;
65477;SDS011;53678;39.642;22.430;2023-11-18T05:21:01;0.60;;;0.45;;
65477;SDS011;53678;39.642;22.430;2023-11-18T05:23:30;0.80;;;0.50;;
65477;SDS011;53678;39.642;22.430;2023-11-18T05:25:56;1.60;;;0.60;;
65477;SDS011;53678;39.642;22.430;2023-11-18T05:28:22;1.60;;;0.90;;
65477;SDS011;53678;39.642;22.430;2023-11-18T05:30:47;1.70;;;0.65;;
65477;SDS011;53678;39.642;22.430;2023-11-18T05:33:13;1.73;;;1.00;;
65477;SDS011;53678;39.642;22.430;2023-11-18T05:35:43;5.88;;;0.90;;
65477;SDS011;53678;39.642;22.430;2023-11-18T05:38:20;2.13;;;0.60;;
65477;SDS011;53678;39.642;22.430;2023-11-18T05:40:51;1.20;;;0.80;;
65477;SDS011;53678;39.642;22.430;2023-11-18T05:43:27;0.88;;;0.60;;
65477;SDS011;53678;39.642;22.430;2023-11-18T05:46:05;4.78;;;1.00;;
65477;SDS011;53678;39.642;22.430;2023-11-18T05:48:43;2.85;;;0.85;;
65477;SDS011;53678;39.642;22.430;2023-11-18T05:51:09;2.33;;;0.98;;
65477;SDS011;53678;39.642;22.430;2023-11-18T05:53:39;0.88;;;0.70;;
65477;SDS011;53678;39.642;22.430;2023-11-18T05:56:06;4.03;;;1.60;;
65477;SDS011;53678;39.642;22.430;2023-11-18T05:58:32;3.33;;;1.02;;
65477;SDS011;53678;39.642;22.430;2023-11-18T06:00:59;2.83;;;1.50;;
65477;SDS011;53678;39.642;22.430;2023-11-18T06:03:25;1.80;;;1.10;;
65477;SDS011;53678;39.642;22.430;2023-11-18T06:05:51;1.75;;;0.80;;
65477;SDS011;53678;39.642;22.430;2023-11-18T06:08:17;2.28;;;0.52;;
65477;SDS011;53678;39.642;22.430;2023-11-18T06:10:43;3.67;;;0.80;;
65477;SDS011;53678;39.642;22.430;2023-11-18T06:13:10;1.50;;;0.60;;
65477;SDS011;53678;39.642;22.430;2023-11-18T06:15:38;1.58;;;0.90;;
65477;SDS011;53678;39.642;22.430;2023-11-18T06:18:04;2.03;;;1.27;;
65477;SDS011;53678;39.642;22.430;2023-11-18T06:20:33;2.83;;;1.52;;
65477;SDS011;53678;39.642;22.430;2023-11-18T06:23:00;3.25;;;1.38;;
65477;SDS011;53678;39.642;22.430;2023-11-18T06:25:26;4.20;;;2.22;;
65477;SDS011;53678;39.642;22.430;2023-11-18T06:27:51;6.13;;;2.60;;
65477;SDS011;53678;39.642;22.430;2023-11-18T06:30:20;8.65;;;2.30;;
65477;SDS011;53678;39.642;22.430;2023-11-18T06:32:46;11.27;;;2.67;;
65477;SDS011;53678;39.642;22.430;2023-11-18T06:35:12;7.60;;;2.65;;
65477;SDS011;53678;39.642;22.430;2023-11-18T06:37:41;4.53;;;2.33;;
65477;SDS011;53678;39.642;22.430;2023-11-18T06:40:08;4.47;;;2.92;;
65477;SDS011;53678;39.642;22.430;2023-11-18T06:42:44;3.05;;;2.10;;
65477;SDS011;53678;39.642;22.430;2023-11-18T06:45:13;5.05;;;2.08;;
65477;SDS011;53678;39.642;22.430;2023-11-18T06:47:40;4.18;;;2.38;;
65477;SDS011;53678;39.642;22.430;2023-11-18T06:50:10;2.85;;;1.67;;
65477;SDS011;53678;39.642;22.430;2023-11-18T06:52:39;2.50;;;1.40;;
65477;SDS011;53678;39.642;22.430;2023-11-18T06:55:07;2.58;;;1.10;;
65477;SDS011;53678;39.642;22.430;2023-11-18T06:57:33;2.42;;;1.33;;
65477;SDS011;53678;39.642;22.430;2023-11-18T07:00:03;2.83;;;1.63;;
65477;SDS011;53678;39.642;22.430;2023-11-18T07:02:33;3.30;;;1.60;;
65477;SDS011;53678;39.642;22.430;2023-11-18T07:04:59;2.10;;;1.25;;
65477;SDS011;53678;39.642;22.430;2023-11-18T07:07:25;2.83;;;1.33;;
65477;SDS011;53678;39.642;22.430;2023-11-18T07:09:51;4.75;;;1.02;;
65477;SDS011;53678;39.642;22.430;2023-11-18T07:12:17;2.63;;;1.38;;
65477;SDS011;53678;39.642;22.430;2023-11-18T07:14:47;2.30;;;1.33;;
65477;SDS011;53678;39.642;22.430;2023-11-18T07:17:13;1.83;;;1.10;;
65477;SDS011;53678;39.642;22.430;2023-11-18T07:19:39;3.75;;;1.33;;
65477;SDS011;53678;39.642;22.430;2023-11-18T07:22:05;4.75;;;2.00;;
65477;SDS011;53678;39.642;22.430;2023-11-18T07:24:32;3.67;;;1.77;;
65477;SDS011;53678;39.642;22.430;2023-11-18T07:26:57;2.47;;;1.40;;
65477;SDS011;53678;39.642;22.430;2023-11-18T07:29:25;2.40;;;1.10;;
65477;SDS011;53678;39.642;22.430;2023-11-18T07:31:52;4.40;;;1.10;;
65477;SDS011;53678;39.642;22.430;2023-11-18T07:34:20;7.97;;;1.30;;
65477;SDS011;53678;39.642;22.430;2023-11-18T07:36:47;2.58;;;0.93;;
65477;SDS011;53678;39.642;22.430;2023-11-18T07:39:13;1.02;;;0.80;;
65477;SDS011;53678;39.642;22.430;2023-11-18T07:41:49;1.58;;;0.95;;
65477;SDS011;53678;39.642;22.430;2023-11-18T07:44:15;1.48;;;0.90;;
65477;SDS011;53678;39.642;22.430;2023-11-18T07:46:41;1.95;;;1.30;;
65477;SDS011;53678;39.642;22.430;2023-11-18T07:49:07;2.53;;;1.10;;
65477;SDS011;53678;39.642;22.430;2023-11-18T07:51:34;11.80;;;1.45;;
65477;SDS011;53678;39.642;22.430;2023-11-18T07:54:00;5.20;;;1.35;;
65477;SDS011;53678;39.642;22.430;2023-11-18T07:56:26;6.35;;;1.23;;
65477;SDS011;53678;39.642;22.430;2023-11-18T07:58:53;2.78;;;0.95;;
65477;SDS011;53678;39.642;22.430;2023-11-18T08:01:20;7.30;;;1.88;;
65477;SDS011;53678;39.642;22.430;2023-11-18T08:03:49;6.10;;;1.40;;
65477;SDS011;53678;39.642;22.430;2023-11-18T08:06:18;5.68;;;1.50;;
65477;SDS011;53678;39.642;22.430;2023-11-18T08:08:43;2.58;;;1.10;;
65477;SDS011;53678;39.642;22.430;2023-11-18T08:11:12;6.10;;;1.55;;
65477;SDS011;53678;39.642;22.430;2023-11-18T08:13:37;9.90;;;1.20;;
65477;SDS011;53678;39.642;22.430;2023-11-18T08:16:03;10.50;;;2.08;;
65477;SDS011;53678;39.642;22.430;2023-11-18T08:18:29;1.48;;;0.93;;
65477;SDS011;53678;39.642;22.430;2023-11-18T08:20:56;15.55;;;2.65;;
65477;SDS011;53678;39.642;22.430;2023-11-18T08:23:22;4.60;;;1.20;;
65477;SDS011;53678;39.642;22.430;2023-11-18T08:25:48;11.50;;;2.17;;
65477;SDS011;53678;39.642;22.430;2023-11-18T08:28:16;3.25;;;1.30;;
65477;SDS011;53678;39.642;22.430;2023-11-18T08:30:41;4.93;;;2.08;;
65477;SDS011;53678;39.642;22.430;2023-11-18T08:33:07;3.92;;;2.35;;
65477;SDS011;53678;39.642;22.430;2023-11-18T08:35:36;5.20;;;1.27;;
65477;SDS011;53678;39.642;22.430;2023-11-18T08:38:02;7.40;;;1.60;;
65477;SDS011;53678;39.642;22.430;2023-11-18T08:40:29;10.65;;;1.42;;
65477;SDS011;53678;39.642;22.430;2023-11-18T08:42:55;4.43;;;1.67;;
65477;SDS011;53678;39.642;22.430;2023-11-18T08:45:23;14.15;;;1.80;;
65477;SDS011;53678;39.642;22.430;2023-11-18T08:47:57;6.38;;;1.60;;
65477;SDS011;53678;39.642;22.430;2023-11-18T08:50:29;7.30;;;1.40;;
65477;SDS011;53678;39.642;22.430;2023-11-18T08:52:56;11.30;;;2.17;;
65477;SDS011;53678;39.642;22.430;2023-11-18T08:55:30;9.07;;;2.05;;
65477;SDS011;53678;39.642;22.430;2023-11-18T08:58:10;5.03;;;1.45;;
65477;SDS011;53678;39.642;22.430;2023-11-18T09:00:56;5.75;;;1.77;;
65477;SDS011;53678;39.642;22.430;2023-11-18T09:03:38;4.35;;;1.20;;
65477;SDS011;53678;39.642;22.430;2023-11-18T09:06:09;4.57;;;0.90;;
65477;SDS011;53678;39.642;22.430;2023-11-18T09:08:51;12.20;;;2.00;;
65477;SDS011;53678;39.642;22.430;2023-11-18T09:11:20;4.50;;;1.35;;
65477;SDS011;53678;39.642;22.430;2023-11-18T09:13:49;5.32;;;1.20;;
65477;SDS011;53678;39.642;22.430;2023-11-18T09:16:25;5.15;;;1.65;;
65477;SDS011;53678;39.642;22.430;2023-11-18T09:18:54;4.30;;;1.55;;
65477;SDS011;53678;39.642;22.430;2023-11-18T09:21:21;4.93;;;0.93;;
65477;SDS011;53678;39.642;22.430;2023-11-18T09:23:54;6.13;;;1.40;;
65477;SDS011;53678;39.642;22.430;2023-11-18T09:26:21;3.65;;;1.40;;
65477;SDS011;53678;39.642;22.430;2023-11-18T09:28:47;3.63;;;1.30;;
65477;SDS011;53678;39.642;22.430;2023-11-18T09:31:15;1.80;;;1.10;;
65477;SDS011;53678;39.642;22.430;2023-11-18T09:33:42;1.45;;;0.90;;
65477;SDS011;53678;39.642;22.430;2023-11-18T09:36:17;4.18;;;1.10;;
65477;SDS011;53678;39.642;22.430;2023-11-18T09:38:44;2.67;;;0.98;;
65477;SDS011;53678;39.642;22.430;2023-11-18T09:41:13;1.80;;;1.13;;
65477;SDS011;53678;39.642;22.430;2023-11-18T09:43:39;4.78;;;1.20;;
65477;SDS011;53678;39.642;22.430;2023-11-18T09:48:41;1.48;;;0.90;;
65477;SDS011;53678;39.642;22.430;2023-11-18T09:51:19;6.43;;;1.10;;
65477;SDS011;53678;39.642;22.430;2023-11-18T09:53:48;1.13;;;0.70;;
65477;SDS011;53678;39.642;22.430;2023-11-18T09:58:54;2.33;;;1.13;;
65477;SDS011;53678;39.642;22.430;2023-11-18T10:01:31;4.95;;;1.30;;
65477;SDS011;53678;39.642;22.430;2023-11-18T10:04:04;7.68;;;1.65;;
65477;SDS011;53678;39.642;22.430;2023-11-18T10:06:34;3.22;;;1.10;;
65477;SDS011;53678;39.642;22.430;2023-11-18T10:09:02;5.47;;;1.20;;
65477;SDS011;53678;39.642;22.430;2023-11-18T10:11:41;4.07;;;1.13;;
65477;SDS011;53678;39.642;22.430;2023-11-18T10:14:08;4.75;;;1.00;;
65477;SDS011;53678;39.642;22.430;2023-11-18T10:16:34;6.43;;;1.52;;
65477;SDS011;53678;39.642;22.430;2023-11-18T10:19:01;5.60;;;1.48;;
65477;SDS011;53678;39.642;22.430;2023-11-18T10:21:38;3.35;;;1.02;;
65477;SDS011;53678;39.642;22.430;2023-11-18T10:24:05;2.42;;;1.10;;
65477;SDS011;53678;39.642;22.430;2023-11-18T10:26:42;7.05;;;1.10;;
65477;SDS011;53678;39.642;22.430;2023-11-18T10:29:10;2.67;;;1.08;;
65477;SDS011;53678;39.642;22.430;2023-11-18T10:31:38;1.45;;;0.82;;
65477;SDS011;53678;39.642;22.430;2023-11-18T10:34:11;6.78;;;1.17;;
65477;SDS011;53678;39.642;22.430;2023-11-18T10:36:58;3.33;;;1.27;;
65477;SDS011;53678;39.642;22.430;2023-11-18T10:39:31;1.92;;;1.25;;
65477;SDS011;53678;39.642;22.430;2023-11-18T10:41:58;4.50;;;1.35;;
65477;SDS011;53678;39.642;22.430;2023-11-18T10:44:25;3.20;;;0.70;;
65477;SDS011;53678;39.642;22.430;2023-11-18T10:46:52;6.30;;;2.25;;
65477;SDS011;53678;39.642;22.430;2023-11-18T10:49:19;2.40;;;1.10;;
65477;SDS011;53678;39.642;22.430;2023-11-18T10:51:46;5.40;;;0.98;;
65477;SDS011;53678;39.642;22.430;2023-11-18T10:54:12;5.80;;;1.08;;
65477;SDS011;53678;39.642;22.430;2023-11-18T10:59:12;1.63;;;1.10;;
65477;SDS011;53678;39.642;22.430;2023-11-18T11:01:44;3.38;;;1.60;;
65477;SDS011;53678;39.642;22.430;2023-11-18T11:04:11;1.13;;;0.80;;
65477;SDS011;53678;39.642;22.430;2023-11-18T11:06:40;5.97;;;1.77;;
65477;SDS011;53678;39.642;22.430;2023-11-18T11:09:08;18.98;;;8.57;;
65477;SDS011;53678;39.642;22.430;2023-11-18T11:11:57;4.50;;;1.27;;
65477;SDS011;53678;39.642;22.430;2023-11-18T11:14:32;6.43;;;2.72;;
65477;SDS011;53678;39.642;22.430;2023-11-18T11:17:06;3.42;;;1.33;;
65477;SDS011;53678;39.642;22.430;2023-11-18T11:19:55;2.67;;;1.45;;
65477;SDS011;53678;39.642;22.430;2023-11-18T11:22:56;5.18;;;1.60;;
65477;SDS011;53678;39.642;22.430;2023-11-18T11:28:21;1.85;;;1.23;;
65477;SDS011;53678;39.642;22.430;2023-11-18T11:34:02;2.72;;;1.30;;
65477;SDS011;53678;39.642;22.430;2023-11-18T11:36:34;4.80;;;1.85;;
65477;SDS011;53678;39.642;22.430;2023-11-18T11:39:07;5.72;;;1.50;;
65477;SDS011;53678;39.642;22.430;2023-11-18T11:41:40;2.95;;;1.92;;
65477;SDS011;53678;39.642;22.430;2023-11-18T11:44:11;3.80;;;1.60;;
65477;SDS011;53678;39.642;22.430;2023-11-18T11:46:38;3.28;;;0.82;;
65477;SDS011;53678;39.642;22.430;2023-11-18T11:49:09;3.92;;;1.60;;
65477;SDS011;53678;39.642;22.430;2023-11-18T11:52:01;4.90;;;1.13;;
65477;SDS011;53678;39.642;22.430;2023-11-18T11:54:38;3.35;;;1.00;;
65477;SDS011;53678;39.642;22.430;2023-11-18T11:57:10;3.22;;;1.00;;
65477;SDS011;53678;39.642;22.430;2023-11-18T12:02:09;3.47;;;1.38;;
65477;SDS011;53678;39.642;22.430;2023-11-18T12:04:36;3.72;;;2.30;;
65477;SDS011;53678;39.642;22.430;2023-11-18T12:07:08;4.72;;;1.52;;
65477;SDS011;53678;39.642;22.430;2023-11-18T12:09:35;5.00;;;1.60;;
65477;SDS011;53678;39.642;22.430;2023-11-18T12:12:05;4.80;;;1.73;;
65477;SDS011;53678;39.642;22.430;2023-11-18T12:14:50;13.25;;;4.50;;
65477;SDS011;53678;39.642;22.430;2023-11-18T12:17:17;2.67;;;1.73;;
65477;SDS011;53678;39.642;22.430;2023-11-18T12:19:47;5.15;;;1.70;;
65477;SDS011;53678;39.642;22.430;2023-11-18T12:22:14;5.35;;;1.42;;
65477;SDS011;53678;39.642;22.430;2023-11-18T12:24:45;7.50;;;2.38;;
65477;SDS011;53678;39.642;22.430;2023-11-18T12:35:22;4.20;;;2.10;;
65477;SDS011;53678;39.642;22.430;2023-11-18T12:40:56;4.32;;;2.13;;
65477;SDS011;53678;39.642;22.430;2023-11-18T12:49:15;20.17;;;7.72;;
65477;SDS011;53678;39.642;22.430;2023-11-18T12:51:42;5.63;;;1.85;;
65477;SDS011;53678;39.642;22.430;2023-11-18T12:54:10;7.15;;;3.97;;
65477;SDS011;53678;39.642;22.430;2023-11-18T12:56:40;5.60;;;3.05;;
65477;SDS011;53678;39.642;22.430;2023-11-18T12:59:12;8.82;;;3.45;;
65477;SDS011;53678;39.642;22.430;2023-11-18T13:01:46;13.30;;;5.38;;
65477;SDS011;53678;39.642;22.430;2023-11-18T13:04:18;7.30;;;2.40;;
65477;SDS011;53678;39.642;22.430;2023-11-18T13:06:47;7.13;;;3.45;;
65477;SDS011;53678;39.642;22.430;2023-11-18T13:09:14;3.60;;;1.52;;
65477;SDS011;53678;39.642;22.430;2023-11-18T13:11:51;5.40;;;2.72;;
65477;SDS011;53678;39.642;22.430;2023-11-18T13:14:27;4.30;;;1.90;;
65477;SDS011;53678;39.642;22.430;2023-11-18T13:16:55;5.50;;;1.75;;
65477;SDS011;53678;39.642;22.430;2023-11-18T13:19:26;1.50;;;1.10;;
65477;SDS011;53678;39.642;22.430;2023-11-18T13:21:56;7.10;;;1.27;;
65477;SDS011;53678;39.642;22.430;2023-11-18T13:24:29;0.77;;;0.65;;
65477;SDS011;53678;39.642;22.430;2023-11-18T13:26:56;2.92;;;1.00;;
65477;SDS011;53678;39.642;22.430;2023-11-18T13:29:23;4.68;;;1.65;;
65477;SDS011;53678;39.642;22.430;2023-11-18T13:31:49;5.28;;;2.08;;
65477;SDS011;53678;39.642;22.430;2023-11-18T13:34:20;4.85;;;2.80;;
65477;SDS011;53678;39.642;22.430;2023-11-18T13:36:49;6.32;;;1.58;;
65477;SDS011;53678;39.642;22.430;2023-11-18T13:39:18;2.45;;;1.23;;
65477;SDS011;53678;39.642;22.430;2023-11-18T13:41:48;2.03;;;1.10;;
65477;SDS011;53678;39.642;22.430;2023-11-18T13:47:01;4.30;;;2.03;;
65477;SDS011;53678;39.642;22.430;2023-11-18T13:49:30;10.70;;;1.50;;
65477;SDS011;53678;39.642;22.430;2023-11-18T13:51:57;2.65;;;0.82;;
65477;SDS011;53678;39.642;22.430;2023-11-18T13:54:23;2.17;;;1.10;;
65477;SDS011;53678;39.642;22.430;2023-11-18T13:56:50;1.60;;;1.00;;
65477;SDS011;53678;39.642;22.430;2023-11-18T13:59:24;3.22;;;1.20;;
65477;SDS011;53678;39.642;22.430;2023-11-18T14:01:54;5.40;;;2.40;;
65477;SDS011;53678;39.642;22.430;2023-11-18T14:04:23;4.60;;;2.28;;
65477;SDS011;53678;39.642;22.430;2023-11-18T14:06:52;4.15;;;1.48;;
65477;SDS011;53678;39.642;22.430;2023-11-18T14:09:19;4.05;;;1.48;;
65477;SDS011;53678;39.642;22.430;2023-11-18T14:11:53;3.80;;;1.10;;
65477;SDS011;53678;39.642;22.430;2023-11-18T14:14:22;5.22;;;2.17;;
65477;SDS011;53678;39.642;22.430;2023-11-18T14:16:50;2.25;;;1.27;;
65477;SDS011;53678;39.642;22.430;2023-11-18T14:19:18;3.55;;;1.73;;
65477;SDS011;53678;39.642;22.430;2023-11-18T14:21:44;2.50;;;1.60;;
65477;SDS011;53678;39.642;22.430;2023-11-18T14:24:10;3.45;;;1.70;;
65477;SDS011;53678;39.642;22.430;2023-11-18T14:26:39;7.70;;;1.80;;
65477;SDS011;53678;39.642;22.430;2023-11-18T14:29:06;3.63;;;2.00;;
65477;SDS011;53678;39.642;22.430;2023-11-18T14:31:33;4.72;;;2.05;;
65477;SDS011;53678;39.642;22.430;2023-11-18T14:34:03;2.92;;;1.67;;
65477;SDS011;53678;39.642;22.430;2023-11-18T14:36:29;3.80;;;1.85;;
65477;SDS011;53678;39.642;22.430;2023-11-18T14:38:55;3.25;;;1.38;;
65477;SDS011;53678;39.642;22.430;2023-11-18T14:41:21;4.93;;;1.70;;
65477;SDS011;53678;39.642;22.430;2023-11-18T14:43:52;6.45;;;1.60;;
65477;SDS011;53678;39.642;22.430;2023-11-18T14:46:18;4.43;;;2.40;;
65477;SDS011;53678;39.642;22.430;2023-11-18T14:48:44;7.22;;;1.90;;
65477;SDS011;53678;39.642;22.430;2023-11-18T14:51:10;4.15;;;2.42;;
65477;SDS011;53678;39.642;22.430;2023-11-18T14:53:36;6.43;;;1.77;;
65477;SDS011;53678;39.642;22.430;2023-11-18T14:56:03;4.28;;;1.40;;
65477;SDS011;53678;39.642;22.430;2023-11-18T14:58:31;6.90;;;3.10;;
65477;SDS011;53678;39.642;22.430;2023-11-18T15:01:01;7.03;;;2.63;;
65477;SDS011;53678;39.642;22.430;2023-11-18T15:03:27;5.05;;;2.22;;
65477;SDS011;53678;39.642;22.430;2023-11-18T15:05:53;4.57;;;2.33;;
65477;SDS011;53678;39.642;22.430;2023-11-18T15:08:19;4.38;;;2.00;;
65477;SDS011;53678;39.642;22.430;2023-11-18T15:10:45;3.88;;;1.90;;
65477;SDS011;53678;39.642;22.430;2023-11-18T15:13:10;6.63;;;2.70;;
65477;SDS011;53678;39.642;22.430;2023-11-18T15:15:43;9.53;;;3.37;;